sensor_id;sensor_type;location;lat;lon;timestamp;P1;durP1;ratioP1;P2;durP2;ratioP2
55728;SDS011;41633;39.720;2.910;2023-05-02T00:00:09;13.88;;;2.40;;
55728;SDS011;41633;39.720;2.910;2023-05-02T00:02:36;9.40;;;2.38;;
55728;SDS011;41633;39.720;2.910;2023-05-02T00:07:29;9.93;;;2.38;;
55728;SDS011;41633;39.720;2.910;2023-05-02T00:09:55;8.88;;;2.08;;
55728;SDS011;41633;39.720;2.910;2023-05-02T00:14:47;10.45;;;2.40;;
55728;SDS011;41633;39.720;2.910;2023-05-02T00:19:39;10.15;;;2.40;;
55728;SDS011;41633;39.720;2.910;2023-05-02T00:24:31;11.15;;;2.60;;
55728;SDS011;41633;39.720;2.910;2023-05-02T00:29:24;11.25;;;2.35;;
55728;SDS011;41633;39.720;2.910;2023-05-02T00:34:16;11.52;;;2.50;;
55728;SDS011;41633;39.720;2.910;2023-05-02T00:39:08;11.60;;;2.30;;
55728;SDS011;41633;39.720;2.910;2023-05-02T00:41:34;9.05;;;2.35;;
55728;SDS011;41633;39.720;2.910;2023-05-02T00:46:26;9.52;;;2.50;;
55728;SDS011;41633;39.720;2.910;2023-05-02T00:51:19;11.35;;;2.47;;
55728;SDS011;41633;39.720;2.910;2023-05-02T00:53:45;8.45;;;2.30;;
55728;SDS011;41633;39.720;2.910;2023-05-02T00:56:11;10.57;;;2.80;;
55728;SDS011;41633;39.720;2.910;2023-05-02T00:58:37;11.18;;;2.38;;
55728;SDS011;41633;39.720;2.910;2023-05-02T01:06:47;9.48;;;2.70;;
55728;SDS011;41633;39.720;2.910;2023-05-02T01:11:24;10.57;;;2.58;;
55728;SDS011;41633;39.720;2.910;2023-05-02T01:13:53;11.75;;;2.75;;
55728;SDS011;41633;39.720;2.910;2023-05-02T01:16:20;11.15;;;2.20;;
55728;SDS011;41633;39.720;2.910;2023-05-02T01:18:48;14.25;;;2.85;;
55728;SDS011;41633;39.720;2.910;2023-05-02T01:21:15;12.52;;;2.75;;
55728;SDS011;41633;39.720;2.910;2023-05-02T01:26:20;8.93;;;2.50;;
55728;SDS011;41633;39.720;2.910;2023-05-02T01:29:07;12.57;;;2.55;;
55728;SDS011;41633;39.720;2.910;2023-05-02T01:31:34;9.85;;;2.40;;
55728;SDS011;41633;39.720;2.910;2023-05-02T01:34:01;9.07;;;2.22;;
55728;SDS011;41633;39.720;2.910;2023-05-02T01:36:30;10.73;;;2.50;;
55728;SDS011;41633;39.720;2.910;2023-05-02T01:38:58;10.05;;;2.30;;
55728;SDS011;41633;39.720;2.910;2023-05-02T01:41:25;11.40;;;2.28;;
55728;SDS011;41633;39.720;2.910;2023-05-02T01:43:56;9.43;;;2.15;;
55728;SDS011;41633;39.720;2.910;2023-05-02T01:46:24;11.88;;;2.88;;
55728;SDS011;41633;39.720;2.910;2023-05-02T01:48:51;14.25;;;2.90;;
55728;SDS011;41633;39.720;2.910;2023-05-02T01:51:18;10.57;;;2.20;;
55728;SDS011;41633;39.720;2.910;2023-05-02T01:53:45;13.05;;;2.42;;
55728;SDS011;41633;39.720;2.910;2023-05-02T01:56:14;9.88;;;2.28;;
55728;SDS011;41633;39.720;2.910;2023-05-02T01:58:42;11.02;;;2.72;;
55728;SDS011;41633;39.720;2.910;2023-05-02T02:01:10;11.60;;;2.65;;
55728;SDS011;41633;39.720;2.910;2023-05-02T02:03:36;9.93;;;2.35;;
55728;SDS011;41633;39.720;2.910;2023-05-02T02:06:03;10.25;;;2.92;;
55728;SDS011;41633;39.720;2.910;2023-05-02T02:08:30;10.00;;;2.22;;
55728;SDS011;41633;39.720;2.910;2023-05-02T02:13:25;9.25;;;2.47;;
55728;SDS011;41633;39.720;2.910;2023-05-02T02:15:52;9.80;;;2.45;;
55728;SDS011;41633;39.720;2.910;2023-05-02T02:18:22;10.98;;;2.70;;
55728;SDS011;41633;39.720;2.910;2023-05-02T02:20:50;10.65;;;2.47;;
55728;SDS011;41633;39.720;2.910;2023-05-02T02:23:18;9.18;;;2.40;;
55728;SDS011;41633;39.720;2.910;2023-05-02T02:25:45;9.75;;;2.35;;
55728;SDS011;41633;39.720;2.910;2023-05-02T02:30:37;10.82;;;2.42;;
55728;SDS011;41633;39.720;2.910;2023-05-02T02:33:03;12.50;;;3.25;;
55728;SDS011;41633;39.720;2.910;2023-05-02T02:35:32;10.60;;;2.85;;
55728;SDS011;41633;39.720;2.910;2023-05-02T02:38:05;11.23;;;3.92;;
55728;SDS011;41633;39.720;2.910;2023-05-02T02:40:36;12.98;;;4.30;;
55728;SDS011;41633;39.720;2.910;2023-05-02T02:48:40;10.00;;;2.58;;
55728;SDS011;41633;39.720;2.910;2023-05-02T02:51:09;10.60;;;2.67;;
55728;SDS011;41633;39.720;2.910;2023-05-02T02:56:12;10.73;;;2.42;;
55728;SDS011;41633;39.720;2.910;2023-05-02T03:01:25;10.20;;;2.78;;
55728;SDS011;41633;39.720;2.910;2023-05-02T03:03:52;9.15;;;2.55;;
55728;SDS011;41633;39.720;2.910;2023-05-02T03:06:20;9.90;;;2.50;;
55728;SDS011;41633;39.720;2.910;2023-05-02T03:11:12;11.32;;;2.58;;
55728;SDS011;41633;39.720;2.910;2023-05-02T03:18:48;11.25;;;2.50;;
55728;SDS011;41633;39.720;2.910;2023-05-02T03:21:15;10.10;;;2.30;;
55728;SDS011;41633;39.720;2.910;2023-05-02T03:26:07;12.88;;;2.67;;
55728;SDS011;41633;39.720;2.910;2023-05-02T03:28:33;9.35;;;2.13;;
55728;SDS011;41633;39.720;2.910;2023-05-02T03:31:00;10.75;;;2.25;;
55728;SDS011;41633;39.720;2.910;2023-05-02T03:33:26;11.35;;;2.80;;
55728;SDS011;41633;39.720;2.910;2023-05-02T03:35:52;8.68;;;2.05;;
55728;SDS011;41633;39.720;2.910;2023-05-02T03:40:44;14.32;;;2.80;;
55728;SDS011;41633;39.720;2.910;2023-05-02T03:45:36;8.95;;;2.15;;
55728;SDS011;41633;39.720;2.910;2023-05-02T03:50:28;9.90;;;2.50;;
55728;SDS011;41633;39.720;2.910;2023-05-02T03:55:21;13.60;;;2.35;;
55728;SDS011;41633;39.720;2.910;2023-05-02T03:57:47;8.93;;;2.25;;
55728;SDS011;41633;39.720;2.910;2023-05-02T04:00:13;10.88;;;2.30;;
55728;SDS011;41633;39.720;2.910;2023-05-02T04:02:40;10.75;;;2.65;;
55728;SDS011;41633;39.720;2.910;2023-05-02T04:05:06;8.07;;;2.25;;
55728;SDS011;41633;39.720;2.910;2023-05-02T04:07:33;9.40;;;2.35;;
55728;SDS011;41633;39.720;2.910;2023-05-02T04:09:59;8.02;;;2.03;;
55728;SDS011;41633;39.720;2.910;2023-05-02T04:14:51;12.13;;;3.33;;
55728;SDS011;41633;39.720;2.910;2023-05-02T04:17:19;12.07;;;3.00;;
55728;SDS011;41633;39.720;2.910;2023-05-02T04:19:45;11.75;;;3.47;;
55728;SDS011;41633;39.720;2.910;2023-05-02T04:24:38;12.50;;;3.22;;
55728;SDS011;41633;39.720;2.910;2023-05-02T04:29:30;11.60;;;3.10;;
55728;SDS011;41633;39.720;2.910;2023-05-02T04:34:22;10.40;;;2.80;;
55728;SDS011;41633;39.720;2.910;2023-05-02T04:36:48;9.73;;;2.60;;
55728;SDS011;41633;39.720;2.910;2023-05-02T04:41:40;9.07;;;2.70;;
55728;SDS011;41633;39.720;2.910;2023-05-02T04:44:07;14.20;;;5.40;;
55728;SDS011;41633;39.720;2.910;2023-05-02T04:48:59;15.35;;;6.57;;
55728;SDS011;41633;39.720;2.910;2023-05-02T04:53:53;10.43;;;3.80;;
55728;SDS011;41633;39.720;2.910;2023-05-02T04:58:45;11.73;;;3.10;;
55728;SDS011;41633;39.720;2.910;2023-05-02T05:03:37;10.82;;;2.55;;
55728;SDS011;41633;39.720;2.910;2023-05-02T05:06:04;10.93;;;2.70;;
55728;SDS011;41633;39.720;2.910;2023-05-02T05:08:30;12.27;;;2.47;;
55728;SDS011;41633;39.720;2.910;2023-05-02T05:10:56;8.73;;;2.60;;
55728;SDS011;41633;39.720;2.910;2023-05-02T05:13:23;9.48;;;2.45;;
55728;SDS011;41633;39.720;2.910;2023-05-02T05:18:15;9.80;;;2.72;;
55728;SDS011;41633;39.720;2.910;2023-05-02T05:20:42;13.95;;;2.92;;
55728;SDS011;41633;39.720;2.910;2023-05-02T05:25:34;11.85;;;2.92;;
55728;SDS011;41633;39.720;2.910;2023-05-02T05:30:26;11.95;;;2.78;;
55728;SDS011;41633;39.720;2.910;2023-05-02T05:32:54;7.68;;;2.03;;
55728;SDS011;41633;39.720;2.910;2023-05-02T05:35:21;11.82;;;2.47;;
55728;SDS011;41633;39.720;2.910;2023-05-02T05:40:13;9.88;;;2.78;;
55728;SDS011;41633;39.720;2.910;2023-05-02T05:45:05;11.05;;;3.00;;
55728;SDS011;41633;39.720;2.910;2023-05-02T05:47:31;12.65;;;3.28;;
55728;SDS011;41633;39.720;2.910;2023-05-02T05:52:23;17.13;;;5.43;;
55728;SDS011;41633;39.720;2.910;2023-05-02T05:57:15;13.32;;;4.32;;
55728;SDS011;41633;39.720;2.910;2023-05-02T06:02:07;17.33;;;5.90;;
55728;SDS011;41633;39.720;2.910;2023-05-02T06:04:34;16.65;;;3.45;;
55728;SDS011;41633;39.720;2.910;2023-05-02T06:09:26;13.88;;;2.80;;
55728;SDS011;41633;39.720;2.910;2023-05-02T06:14:18;14.55;;;3.00;;
55728;SDS011;41633;39.720;2.910;2023-05-02T06:19:10;12.48;;;2.85;;
55728;SDS011;41633;39.720;2.910;2023-05-02T06:21:37;14.57;;;3.30;;
55728;SDS011;41633;39.720;2.910;2023-05-02T06:26:29;11.30;;;3.17;;
55728;SDS011;41633;39.720;2.910;2023-05-02T06:28:55;11.65;;;2.90;;
55728;SDS011;41633;39.720;2.910;2023-05-02T06:33:47;11.75;;;2.95;;
55728;SDS011;41633;39.720;2.910;2023-05-02T06:36:13;8.68;;;2.90;;
55728;SDS011;41633;39.720;2.910;2023-05-02T06:41:06;10.63;;;3.17;;
55728;SDS011;41633;39.720;2.910;2023-05-02T06:43:38;9.30;;;2.60;;
55728;SDS011;41633;39.720;2.910;2023-05-02T06:48:30;11.60;;;2.85;;
55728;SDS011;41633;39.720;2.910;2023-05-02T06:50:56;10.20;;;2.88;;
55728;SDS011;41633;39.720;2.910;2023-05-02T06:55:48;10.68;;;2.60;;
55728;SDS011;41633;39.720;2.910;2023-05-02T06:58:15;10.55;;;2.80;;
55728;SDS011;41633;39.720;2.910;2023-05-02T07:00:41;11.85;;;2.60;;
55728;SDS011;41633;39.720;2.910;2023-05-02T07:05:35;8.20;;;2.10;;
55728;SDS011;41633;39.720;2.910;2023-05-02T07:10:27;10.00;;;2.03;;
55728;SDS011;41633;39.720;2.910;2023-05-02T07:15:19;9.63;;;2.40;;
55728;SDS011;41633;39.720;2.910;2023-05-02T07:17:45;8.25;;;1.88;;
55728;SDS011;41633;39.720;2.910;2023-05-02T07:20:11;9.73;;;2.25;;
55728;SDS011;41633;39.720;2.910;2023-05-02T07:22:38;8.00;;;2.20;;
55728;SDS011;41633;39.720;2.910;2023-05-02T07:25:04;9.10;;;2.15;;
55728;SDS011;41633;39.720;2.910;2023-05-02T07:27:31;7.70;;;1.70;;
55728;SDS011;41633;39.720;2.910;2023-05-02T07:32:23;8.30;;;2.15;;
55728;SDS011;41633;39.720;2.910;2023-05-02T07:34:50;8.40;;;2.00;;
55728;SDS011;41633;39.720;2.910;2023-05-02T07:37:21;10.77;;;2.00;;
55728;SDS011;41633;39.720;2.910;2023-05-02T07:39:47;7.50;;;1.95;;
55728;SDS011;41633;39.720;2.910;2023-05-02T07:42:13;8.02;;;2.10;;
55728;SDS011;41633;39.720;2.910;2023-05-02T07:44:39;6.75;;;1.75;;
55728;SDS011;41633;39.720;2.910;2023-05-02T07:47:06;8.90;;;2.35;;
55728;SDS011;41633;39.720;2.910;2023-05-02T07:49:32;7.60;;;2.00;;
55728;SDS011;41633;39.720;2.910;2023-05-02T07:51:58;8.77;;;2.10;;
55728;SDS011;41633;39.720;2.910;2023-05-02T07:54:25;9.27;;;1.90;;
55728;SDS011;41633;39.720;2.910;2023-05-02T07:56:51;8.32;;;1.90;;
55728;SDS011;41633;39.720;2.910;2023-05-02T07:59:18;7.80;;;1.90;;
55728;SDS011;41633;39.720;2.910;2023-05-02T08:01:44;9.75;;;1.80;;
55728;SDS011;41633;39.720;2.910;2023-05-02T08:04:10;8.40;;;1.88;;
55728;SDS011;41633;39.720;2.910;2023-05-02T08:06:36;8.48;;;1.67;;
55728;SDS011;41633;39.720;2.910;2023-05-02T08:09:03;7.13;;;1.65;;
55728;SDS011;41633;39.720;2.910;2023-05-02T08:11:29;8.88;;;1.83;;
55728;SDS011;41633;39.720;2.910;2023-05-02T08:13:55;8.10;;;1.70;;
55728;SDS011;41633;39.720;2.910;2023-05-02T08:16:21;6.03;;;1.50;;
55728;SDS011;41633;39.720;2.910;2023-05-02T08:18:47;9.85;;;1.70;;
55728;SDS011;41633;39.720;2.910;2023-05-02T08:21:13;5.85;;;1.70;;
55728;SDS011;41633;39.720;2.910;2023-05-02T08:23:40;7.43;;;1.63;;
55728;SDS011;41633;39.720;2.910;2023-05-02T08:26:06;7.55;;;1.60;;
55728;SDS011;41633;39.720;2.910;2023-05-02T08:28:32;4.85;;;1.50;;
55728;SDS011;41633;39.720;2.910;2023-05-02T08:30:58;5.97;;;1.20;;
55728;SDS011;41633;39.720;2.910;2023-05-02T08:33:25;5.28;;;1.10;;
55728;SDS011;41633;39.720;2.910;2023-05-02T08:35:51;6.63;;;1.45;;
55728;SDS011;41633;39.720;2.910;2023-05-02T08:38:17;7.43;;;1.35;;
55728;SDS011;41633;39.720;2.910;2023-05-02T08:40:43;6.95;;;1.35;;
55728;SDS011;41633;39.720;2.910;2023-05-02T08:43:10;6.03;;;1.33;;
55728;SDS011;41633;39.720;2.910;2023-05-02T08:45:41;6.13;;;1.30;;
55728;SDS011;41633;39.720;2.910;2023-05-02T08:48:10;6.75;;;1.50;;
55728;SDS011;41633;39.720;2.910;2023-05-02T08:50:40;6.47;;;1.52;;
55728;SDS011;41633;39.720;2.910;2023-05-02T08:53:08;5.65;;;1.30;;
55728;SDS011;41633;39.720;2.910;2023-05-02T08:55:36;13.18;;;1.50;;
55728;SDS011;41633;39.720;2.910;2023-05-02T08:58:04;6.70;;;1.35;;
55728;SDS011;41633;39.720;2.910;2023-05-02T09:00:31;5.13;;;1.30;;
55728;SDS011;41633;39.720;2.910;2023-05-02T09:05:30;7.80;;;2.03;;
55728;SDS011;41633;39.720;2.910;2023-05-02T09:07:58;9.15;;;1.77;;
55728;SDS011;41633;39.720;2.910;2023-05-02T09:10:24;7.03;;;1.60;;
55728;SDS011;41633;39.720;2.910;2023-05-02T09:12:53;9.52;;;1.50;;
55728;SDS011;41633;39.720;2.910;2023-05-02T09:15:19;4.45;;;1.20;;
55728;SDS011;41633;39.720;2.910;2023-05-02T09:17:46;5.75;;;1.27;;
55728;SDS011;41633;39.720;2.910;2023-05-02T09:20:13;4.93;;;1.23;;
55728;SDS011;41633;39.720;2.910;2023-05-02T09:22:49;6.80;;;1.60;;
55728;SDS011;41633;39.720;2.910;2023-05-02T09:27:51;10.63;;;1.50;;
55728;SDS011;41633;39.720;2.910;2023-05-02T09:30:19;7.82;;;1.80;;
55728;SDS011;41633;39.720;2.910;2023-05-02T09:32:45;6.43;;;1.70;;
55728;SDS011;41633;39.720;2.910;2023-05-02T09:35:12;5.68;;;1.27;;
55728;SDS011;41633;39.720;2.910;2023-05-02T09:37:47;5.23;;;1.17;;
55728;SDS011;41633;39.720;2.910;2023-05-02T09:40:13;10.73;;;1.67;;
55728;SDS011;41633;39.720;2.910;2023-05-02T09:42:39;16.65;;;1.92;;
55728;SDS011;41633;39.720;2.910;2023-05-02T09:45:06;10.38;;;1.70;;
55728;SDS011;41633;39.720;2.910;2023-05-02T09:47:32;11.00;;;2.17;;
55728;SDS011;41633;39.720;2.910;2023-05-02T09:49:58;11.43;;;1.80;;
55728;SDS011;41633;39.720;2.910;2023-05-02T09:52:25;9.32;;;1.73;;
55728;SDS011;41633;39.720;2.910;2023-05-02T09:54:51;7.30;;;1.70;;
55728;SDS011;41633;39.720;2.910;2023-05-02T09:57:17;6.15;;;1.48;;
55728;SDS011;41633;39.720;2.910;2023-05-02T09:59:53;7.30;;;1.40;;
55728;SDS011;41633;39.720;2.910;2023-05-02T10:02:20;9.90;;;2.10;;
55728;SDS011;41633;39.720;2.910;2023-05-02T10:04:46;8.82;;;1.90;;
55728;SDS011;41633;39.720;2.910;2023-05-02T10:07:13;10.98;;;1.98;;
55728;SDS011;41633;39.720;2.910;2023-05-02T10:09:42;14.40;;;1.85;;
55728;SDS011;41633;39.720;2.910;2023-05-02T10:12:09;12.57;;;1.80;;
55728;SDS011;41633;39.720;2.910;2023-05-02T10:14:39;10.77;;;1.52;;
55728;SDS011;41633;39.720;2.910;2023-05-02T10:17:12;6.70;;;1.58;;
55728;SDS011;41633;39.720;2.910;2023-05-02T10:22:06;7.55;;;1.50;;
55728;SDS011;41633;39.720;2.910;2023-05-02T10:24:33;12.25;;;1.80;;
55728;SDS011;41633;39.720;2.910;2023-05-02T10:26:59;11.65;;;1.60;;
55728;SDS011;41633;39.720;2.910;2023-05-02T10:29:29;7.45;;;1.30;;
55728;SDS011;41633;39.720;2.910;2023-05-02T10:31:56;5.68;;;1.25;;
55728;SDS011;41633;39.720;2.910;2023-05-02T10:34:23;9.70;;;1.60;;
55728;SDS011;41633;39.720;2.910;2023-05-02T10:36:49;7.15;;;1.63;;
55728;SDS011;41633;39.720;2.910;2023-05-02T10:39:15;6.30;;;1.33;;
55728;SDS011;41633;39.720;2.910;2023-05-02T10:41:43;8.90;;;1.60;;
55728;SDS011;41633;39.720;2.910;2023-05-02T10:44:10;8.50;;;1.30;;
55728;SDS011;41633;39.720;2.910;2023-05-02T10:49:05;4.45;;;0.95;;
55728;SDS011;41633;39.720;2.910;2023-05-02T10:51:32;5.05;;;1.17;;
55728;SDS011;41633;39.720;2.910;2023-05-02T10:59:35;7.55;;;1.42;;
55728;SDS011;41633;39.720;2.910;2023-05-02T11:02:01;6.25;;;1.15;;
55728;SDS011;41633;39.720;2.910;2023-05-02T11:09:39;6.30;;;1.17;;
55728;SDS011;41633;39.720;2.910;2023-05-02T11:12:05;5.95;;;1.10;;
55728;SDS011;41633;39.720;2.910;2023-05-02T11:17:06;6.88;;;1.50;;
55728;SDS011;41633;39.720;2.910;2023-05-02T11:24:44;6.20;;;1.45;;
55728;SDS011;41633;39.720;2.910;2023-05-02T11:30:05;8.95;;;1.48;;
55728;SDS011;41633;39.720;2.910;2023-05-02T11:35:19;7.85;;;1.30;;
55728;SDS011;41633;39.720;2.910;2023-05-02T11:37:55;10.02;;;1.50;;
55728;SDS011;41633;39.720;2.910;2023-05-02T11:40:22;7.30;;;1.88;;
55728;SDS011;41633;39.720;2.910;2023-05-02T11:42:48;10.45;;;1.80;;
55728;SDS011;41633;39.720;2.910;2023-05-02T11:45:14;9.40;;;1.88;;
55728;SDS011;41633;39.720;2.910;2023-05-02T11:47:41;8.52;;;1.50;;
55728;SDS011;41633;39.720;2.910;2023-05-02T11:50:07;7.25;;;1.60;;
55728;SDS011;41633;39.720;2.910;2023-05-02T11:52:40;5.95;;;1.48;;
55728;SDS011;41633;39.720;2.910;2023-05-02T11:55:07;7.22;;;1.27;;
55728;SDS011;41633;39.720;2.910;2023-05-02T11:57:33;7.97;;;1.77;;
55728;SDS011;41633;39.720;2.910;2023-05-02T12:00:00;6.53;;;1.50;;
55728;SDS011;41633;39.720;2.910;2023-05-02T12:02:35;7.20;;;1.70;;
55728;SDS011;41633;39.720;2.910;2023-05-02T12:05:02;7.50;;;1.40;;
55728;SDS011;41633;39.720;2.910;2023-05-02T12:07:39;8.23;;;1.70;;
55728;SDS011;41633;39.720;2.910;2023-05-02T12:10:06;6.30;;;1.50;;
55728;SDS011;41633;39.720;2.910;2023-05-02T12:12:32;6.07;;;1.63;;
55728;SDS011;41633;39.720;2.910;2023-05-02T12:15:08;8.13;;;2.45;;
55728;SDS011;41633;39.720;2.910;2023-05-02T12:17:42;8.25;;;2.00;;
55728;SDS011;41633;39.720;2.910;2023-05-02T12:20:09;9.77;;;1.98;;
55728;SDS011;41633;39.720;2.910;2023-05-02T12:22:36;8.13;;;1.70;;
55728;SDS011;41633;39.720;2.910;2023-05-02T12:25:06;7.68;;;1.60;;
55728;SDS011;41633;39.720;2.910;2023-05-02T12:27:32;8.52;;;1.48;;
55728;SDS011;41633;39.720;2.910;2023-05-02T12:29:59;8.98;;;1.77;;
55728;SDS011;41633;39.720;2.910;2023-05-02T12:32:29;7.63;;;1.45;;
55728;SDS011;41633;39.720;2.910;2023-05-02T12:34:56;9.15;;;1.65;;
55728;SDS011;41633;39.720;2.910;2023-05-02T12:37:23;9.20;;;1.80;;
55728;SDS011;41633;39.720;2.910;2023-05-02T12:39:49;9.80;;;1.60;;
55728;SDS011;41633;39.720;2.910;2023-05-02T12:42:18;8.13;;;1.48;;
55728;SDS011;41633;39.720;2.910;2023-05-02T12:44:46;9.20;;;1.50;;
55728;SDS011;41633;39.720;2.910;2023-05-02T12:47:13;7.10;;;1.60;;
55728;SDS011;41633;39.720;2.910;2023-05-02T12:54:41;9.77;;;1.90;;
55728;SDS011;41633;39.720;2.910;2023-05-02T12:57:07;9.43;;;1.73;;
55728;SDS011;41633;39.720;2.910;2023-05-02T12:59:33;9.23;;;1.77;;
55728;SDS011;41633;39.720;2.910;2023-05-02T13:02:00;7.78;;;1.73;;
55728;SDS011;41633;39.720;2.910;2023-05-02T13:04:33;7.50;;;1.80;;
55728;SDS011;41633;39.720;2.910;2023-05-02T13:06:59;7.25;;;1.52;;
55728;SDS011;41633;39.720;2.910;2023-05-02T13:09:25;7.60;;;1.40;;
55728;SDS011;41633;39.720;2.910;2023-05-02T13:11:51;7.40;;;1.30;;
55728;SDS011;41633;39.720;2.910;2023-05-02T13:14:18;7.82;;;1.75;;
55728;SDS011;41633;39.720;2.910;2023-05-02T13:16:44;7.55;;;1.65;;
55728;SDS011;41633;39.720;2.910;2023-05-02T13:19:10;6.97;;;1.85;;
55728;SDS011;41633;39.720;2.910;2023-05-02T13:21:36;5.70;;;1.30;;
55728;SDS011;41633;39.720;2.910;2023-05-02T13:24:03;8.50;;;1.73;;
55728;SDS011;41633;39.720;2.910;2023-05-02T13:26:29;6.55;;;1.60;;
55728;SDS011;41633;39.720;2.910;2023-05-02T13:28:55;7.65;;;1.70;;
55728;SDS011;41633;39.720;2.910;2023-05-02T13:31:21;6.97;;;1.40;;
55728;SDS011;41633;39.720;2.910;2023-05-02T13:33:47;8.05;;;1.38;;
55728;SDS011;41633;39.720;2.910;2023-05-02T13:36:14;6.53;;;1.05;;
55728;SDS011;41633;39.720;2.910;2023-05-02T13:38:40;6.50;;;1.40;;
55728;SDS011;41633;39.720;2.910;2023-05-02T13:41:06;8.52;;;1.60;;
55728;SDS011;41633;39.720;2.910;2023-05-02T13:43:32;7.95;;;1.70;;
55728;SDS011;41633;39.720;2.910;2023-05-02T13:45:58;6.63;;;1.63;;
55728;SDS011;41633;39.720;2.910;2023-05-02T13:48:24;6.10;;;1.40;;
55728;SDS011;41633;39.720;2.910;2023-05-02T13:50:50;6.15;;;1.58;;
55728;SDS011;41633;39.720;2.910;2023-05-02T13:53:17;6.47;;;1.58;;
55728;SDS011;41633;39.720;2.910;2023-05-02T13:55:43;5.65;;;1.48;;
55728;SDS011;41633;39.720;2.910;2023-05-02T13:58:09;5.80;;;1.40;;
55728;SDS011;41633;39.720;2.910;2023-05-02T14:00:35;5.68;;;1.30;;
55728;SDS011;41633;39.720;2.910;2023-05-02T14:03:02;5.85;;;1.50;;
55728;SDS011;41633;39.720;2.910;2023-05-02T14:05:29;7.40;;;1.48;;
55728;SDS011;41633;39.720;2.910;2023-05-02T14:07:55;7.07;;;1.65;;
55728;SDS011;41633;39.720;2.910;2023-05-02T14:10:21;9.27;;;1.73;;
55728;SDS011;41633;39.720;2.910;2023-05-02T14:12:47;7.00;;;1.65;;
55728;SDS011;41633;39.720;2.910;2023-05-02T14:15:13;7.90;;;1.48;;
55728;SDS011;41633;39.720;2.910;2023-05-02T14:17:40;6.63;;;1.55;;
55728;SDS011;41633;39.720;2.910;2023-05-02T14:20:06;6.82;;;1.20;;
55728;SDS011;41633;39.720;2.910;2023-05-02T14:22:34;6.47;;;1.42;;
55728;SDS011;41633;39.720;2.910;2023-05-02T14:25:00;7.28;;;1.38;;
55728;SDS011;41633;39.720;2.910;2023-05-02T14:27:26;5.80;;;1.25;;
55728;SDS011;41633;39.720;2.910;2023-05-02T14:29:52;7.38;;;1.33;;
55728;SDS011;41633;39.720;2.910;2023-05-02T14:32:19;7.75;;;1.45;;
55728;SDS011;41633;39.720;2.910;2023-05-02T14:34:45;8.05;;;1.42;;
55728;SDS011;41633;39.720;2.910;2023-05-02T14:37:11;7.55;;;1.60;;
55728;SDS011;41633;39.720;2.910;2023-05-02T14:39:37;5.82;;;1.33;;
55728;SDS011;41633;39.720;2.910;2023-05-02T14:42:06;9.88;;;1.50;;
55728;SDS011;41633;39.720;2.910;2023-05-02T14:44:32;7.88;;;1.40;;
55728;SDS011;41633;39.720;2.910;2023-05-02T14:46:58;7.95;;;1.50;;
55728;SDS011;41633;39.720;2.910;2023-05-02T14:49:24;7.93;;;1.40;;
55728;SDS011;41633;39.720;2.910;2023-05-02T14:51:51;7.30;;;1.52;;
55728;SDS011;41633;39.720;2.910;2023-05-02T14:54:18;7.30;;;1.90;;
55728;SDS011;41633;39.720;2.910;2023-05-02T14:56:44;7.30;;;1.63;;
55728;SDS011;41633;39.720;2.910;2023-05-02T14:59:11;7.47;;;1.63;;
55728;SDS011;41633;39.720;2.910;2023-05-02T15:01:37;8.10;;;1.50;;
55728;SDS011;41633;39.720;2.910;2023-05-02T15:04:03;8.73;;;1.60;;
55728;SDS011;41633;39.720;2.910;2023-05-02T15:06:29;8.85;;;1.65;;
55728;SDS011;41633;39.720;2.910;2023-05-02T15:08:55;9.00;;;1.35;;
55728;SDS011;41633;39.720;2.910;2023-05-02T15:11:22;7.13;;;1.35;;
55728;SDS011;41633;39.720;2.910;2023-05-02T15:13:48;8.25;;;1.27;;
55728;SDS011;41633;39.720;2.910;2023-05-02T15:16:14;8.95;;;1.67;;
55728;SDS011;41633;39.720;2.910;2023-05-02T15:18:40;5.75;;;1.20;;
55728;SDS011;41633;39.720;2.910;2023-05-02T15:21:06;6.90;;;1.30;;
55728;SDS011;41633;39.720;2.910;2023-05-02T15:23:32;5.43;;;1.30;;
55728;SDS011;41633;39.720;2.910;2023-05-02T15:25:58;8.70;;;1.30;;
55728;SDS011;41633;39.720;2.910;2023-05-02T15:28:25;9.25;;;1.42;;
55728;SDS011;41633;39.720;2.910;2023-05-02T15:30:51;7.95;;;1.60;;
55728;SDS011;41633;39.720;2.910;2023-05-02T15:33:17;6.90;;;1.40;;
55728;SDS011;41633;39.720;2.910;2023-05-02T15:35:53;7.47;;;1.60;;
55728;SDS011;41633;39.720;2.910;2023-05-02T15:38:20;6.88;;;1.52;;
55728;SDS011;41633;39.720;2.910;2023-05-02T15:40:58;8.63;;;2.08;;
55728;SDS011;41633;39.720;2.910;2023-05-02T15:43:25;6.47;;;1.48;;
55728;SDS011;41633;39.720;2.910;2023-05-02T15:45:52;10.18;;;1.60;;
55728;SDS011;41633;39.720;2.910;2023-05-02T15:48:18;6.93;;;1.40;;
55728;SDS011;41633;39.720;2.910;2023-05-02T15:50:45;6.93;;;1.40;;
55728;SDS011;41633;39.720;2.910;2023-05-02T15:53:11;5.03;;;1.25;;
55728;SDS011;41633;39.720;2.910;2023-05-02T15:55:38;6.95;;;1.65;;
55728;SDS011;41633;39.720;2.910;2023-05-02T15:58:05;6.45;;;1.50;;
55728;SDS011;41633;39.720;2.910;2023-05-02T16:00:31;6.05;;;1.23;;
55728;SDS011;41633;39.720;2.910;2023-05-02T16:02:57;6.57;;;1.40;;
55728;SDS011;41633;39.720;2.910;2023-05-02T16:05:23;9.88;;;1.88;;
55728;SDS011;41633;39.720;2.910;2023-05-02T16:07:49;6.80;;;1.50;;
55728;SDS011;41633;39.720;2.910;2023-05-02T16:10:15;7.97;;;1.55;;
55728;SDS011;41633;39.720;2.910;2023-05-02T16:12:42;7.28;;;1.45;;
55728;SDS011;41633;39.720;2.910;2023-05-02T16:15:08;9.77;;;1.65;;
55728;SDS011;41633;39.720;2.910;2023-05-02T16:17:34;7.97;;;1.58;;
55728;SDS011;41633;39.720;2.910;2023-05-02T16:20:00;7.30;;;1.60;;
55728;SDS011;41633;39.720;2.910;2023-05-02T16:22:26;9.43;;;1.50;;
55728;SDS011;41633;39.720;2.910;2023-05-02T16:24:53;8.20;;;1.40;;
55728;SDS011;41633;39.720;2.910;2023-05-02T16:27:20;10.75;;;1.58;;
55728;SDS011;41633;39.720;2.910;2023-05-02T16:29:46;8.07;;;1.70;;
55728;SDS011;41633;39.720;2.910;2023-05-02T16:32:12;7.70;;;1.50;;
55728;SDS011;41633;39.720;2.910;2023-05-02T16:34:38;7.22;;;1.50;;
55728;SDS011;41633;39.720;2.910;2023-05-02T16:37:05;7.57;;;1.60;;
55728;SDS011;41633;39.720;2.910;2023-05-02T16:39:32;8.00;;;1.42;;
55728;SDS011;41633;39.720;2.910;2023-05-02T16:41:58;8.27;;;1.35;;
55728;SDS011;41633;39.720;2.910;2023-05-02T16:44:24;6.72;;;1.60;;
55728;SDS011;41633;39.720;2.910;2023-05-02T16:46:50;10.18;;;1.92;;
55728;SDS011;41633;39.720;2.910;2023-05-02T16:49:17;7.15;;;1.50;;
55728;SDS011;41633;39.720;2.910;2023-05-02T16:51:43;6.50;;;1.48;;
55728;SDS011;41633;39.720;2.910;2023-05-02T16:54:09;7.97;;;2.30;;
55728;SDS011;41633;39.720;2.910;2023-05-02T16:56:35;7.22;;;1.90;;
55728;SDS011;41633;39.720;2.910;2023-05-02T16:59:01;9.43;;;1.88;;
55728;SDS011;41633;39.720;2.910;2023-05-02T17:01:28;8.70;;;1.67;;
55728;SDS011;41633;39.720;2.910;2023-05-02T17:03:54;8.25;;;1.40;;
55728;SDS011;41633;39.720;2.910;2023-05-02T17:06:20;14.07;;;1.83;;
55728;SDS011;41633;39.720;2.910;2023-05-02T17:08:46;8.57;;;1.60;;
55728;SDS011;41633;39.720;2.910;2023-05-02T17:11:13;12.68;;;2.13;;
55728;SDS011;41633;39.720;2.910;2023-05-02T17:13:41;6.60;;;1.73;;
55728;SDS011;41633;39.720;2.910;2023-05-02T17:16:08;6.90;;;1.80;;
55728;SDS011;41633;39.720;2.910;2023-05-02T17:18:35;7.88;;;1.85;;
55728;SDS011;41633;39.720;2.910;2023-05-02T17:21:01;9.18;;;1.88;;
55728;SDS011;41633;39.720;2.910;2023-05-02T17:23:28;7.85;;;1.92;;
55728;SDS011;41633;39.720;2.910;2023-05-02T17:25:54;7.47;;;1.85;;
55728;SDS011;41633;39.720;2.910;2023-05-02T17:28:20;6.43;;;1.73;;
55728;SDS011;41633;39.720;2.910;2023-05-02T17:30:47;7.65;;;1.73;;
55728;SDS011;41633;39.720;2.910;2023-05-02T17:33:17;10.80;;;1.77;;
55728;SDS011;41633;39.720;2.910;2023-05-02T17:35:43;13.45;;;1.80;;
55728;SDS011;41633;39.720;2.910;2023-05-02T17:38:10;8.30;;;1.67;;